Time;durP1;ratioP1;P1;durP2;ratioP2;P2;SDS_P1;SDS_P2;PMS_P1;PMS_P2;Temp;Humidity;BMP_temperature;BMP_pressure;BME280_temperature;BME280_humidity;BME280_pressure;Samples;Min_cycle;Max_cycle;Signal;HPM_P1;HPM_P2
2021/11/29 00:00:02;;;;;;;12.60;12.20;;;19.70;64.30;;;;;;5022295;28;20535;-54
2021/11/29 00:02:29;;;;;;;12.60;12.20;;;19.50;64.50;;;;;;5033551;28;20484;-53
2021/11/29 00:04:56;;;;;;;12.50;12.10;;;19.50;64.90;;;;;;5022045;28;20445;-50
2021/11/29 00:07:24;;;;;;;12.37;11.97;;;19.50;65.10;;;;;;5030895;28;20452;-56
2021/11/29 00:09:51;;;;;;;13.00;12.60;;;19.40;65.00;;;;;;5014145;28;20444;-53
2021/11/29 00:12:18;;;;;;;12.77;12.37;;;19.30;65.50;;;;;;5013798;28;20470;-51
2021/11/29 00:14:45;;;;;;;12.43;12.13;;;19.40;65.80;;;;;;5017431;28;20970;-52
2021/11/29 00:17:12;;;;;;;12.67;12.37;;;19.30;66.00;;;;;;5014089;28;20970;-53
2021/11/29 00:19:39;;;;;;;12.83;12.43;;;19.20;66.20;;;;;;5014006;28;20525;-54
2021/11/29 00:22:05;;;;;;;14.00;13.60;;;19.10;66.40;;;;;;5013813;28;20462;-57
2021/11/29 00:24:34;;;;;;;13.00;12.60;;;19.00;67.00;;;;;;5029808;28;20447;-51
2021/11/29 00:27:01;;;;;;;12.80;12.40;;;19.00;67.50;;;;;;5033565;28;20445;-51
2021/11/29 00:29:28;;;;;;;12.20;11.90;;;18.90;67.90;;;;;;5033245;28;20449;-52
2021/11/29 00:31:55;;;;;;;12.03;11.73;;;18.80;68.30;;;;;;5017758;28;20466;-51
2021/11/29 00:34:22;;;;;;;12.40;12.10;;;18.80;68.50;;;;;;5027106;28;20632;-51
2021/11/29 00:36:49;;;;;;;12.70;12.30;;;18.80;68.70;;;;;;5033656;28;20452;-50
2021/11/29 00:39:17;;;;;;;12.43;12.03;;;18.90;68.70;;;;;;5031711;28;20453;-50
2021/11/29 00:41:45;;;;;;;12.20;11.90;;;18.90;68.80;;;;;;5033220;28;20453;-55
2021/11/29 00:44:13;;;;;;;13.03;12.63;;;18.80;68.80;;;;;;5020726;28;20481;-50
2021/11/29 00:46:40;;;;;;;12.73;12.33;;;18.80;69.10;;;;;;5013475;28;20457;-52
2021/11/29 00:49:07;;;;;;;13.40;12.90;;;18.70;69.50;;;;;;5013384;28;20821;-51
2021/11/29 00:51:33;;;;;;;13.20;12.80;;;18.70;69.60;;;;;;5013108;28;20476;-53
2021/11/29 00:54:00;;;;;;;13.00;12.60;;;18.70;69.80;;;;;;5038272;22;20500;-52
2021/11/29 00:56:28;;;;;;;12.40;12.10;;;18.60;70.00;;;;;;5013389;28;20453;-47
2021/11/29 00:58:56;;;;;;;12.70;12.40;;;18.50;70.30;;;;;;5025360;28;20451;-47
2021/11/29 01:01:23;;;;;;;13.77;13.27;;;18.40;71.20;;;;;;5032771;28;20448;-50
2021/11/29 01:03:50;;;;;;;12.37;12.07;;;18.40;71.80;;;;;;5024029;28;20482;-48
2021/11/29 01:06:17;;;;;;;12.70;12.30;;;18.30;71.80;;;;;;5013501;28;20454;-53
2021/11/29 01:08:44;;;;;;;13.10;12.70;;;18.30;71.80;;;;;;5013472;28;20456;-50
2021/11/29 01:11:11;;;;;;;13.00;12.60;;;18.30;72.00;;;;;;5030473;28;20456;-49
2021/11/29 01:13:39;;;;;;;13.00;12.70;;;18.30;72.10;;;;;;5030456;28;20978;-48
2021/11/29 01:16:09;;;;;;;13.00;12.60;;;18.30;72.30;;;;;;5013270;28;20457;-49
2021/11/29 01:18:36;;;;;;;12.53;12.13;;;18.30;72.70;;;;;;5013225;28;20454;-49
2021/11/29 01:21:03;;;;;;;12.30;12.00;;;18.30;72.80;;;;;;5029433;28;20445;-48
2021/11/29 01:23:30;;;;;;;13.00;12.70;;;18.30;72.70;;;;;;5025055;28;20485;-48
2021/11/29 01:25:58;;;;;;;13.17;12.77;;;18.30;73.30;;;;;;5012964;28;20449;-48
2021/11/29 01:28:25;;;;;;;12.40;12.10;;;18.20;73.20;;;;;;5012908;28;20542;-48
2021/11/29 01:30:52;;;;;;;12.43;12.03;;;18.10;73.70;;;;;;5012686;28;20861;-49
2021/11/29 01:33:20;;;;;;;12.83;12.47;;;18.20;74.20;;;;;;5015894;28;20472;-49
2021/11/29 01:35:47;;;;;;;12.90;12.50;;;18.10;74.70;;;;;;5031788;28;20449;-48
2021/11/29 01:38:14;;;;;;;13.53;13.13;;;18.00;75.20;;;;;;5032571;28;20453;-51
2021/11/29 01:40:41;;;;;;;13.37;12.93;;;18.00;75.60;;;;;;5030713;28;20472;-49
2021/11/29 01:43:09;;;;;;;12.93;12.43;;;18.00;75.80;;;;;;5029776;28;20481;-48
2021/11/29 01:45:38;;;;;;;13.10;12.70;;;18.00;76.30;;;;;;5012580;28;20449;-49
2021/11/29 01:48:06;;;;;;;12.77;12.00;;;18.00;76.50;;;;;;5012593;28;20446;-48
2021/11/29 01:50:35;;;;;;;12.20;11.90;;;18.00;76.70;;;;;;5012456;28;20451;-49
2021/11/29 01:53:02;;;;;;;12.83;12.43;;;18.00;76.80;;;;;;5012639;28;20482;-50
2021/11/29 01:55:29;;;;;;;12.50;12.20;;;17.90;76.90;;;;;;5020065;28;20450;-49
2021/11/29 01:57:56;;;;;;;12.57;12.17;;;17.90;77.40;;;;;;5012561;28;20456;-48
2021/11/29 02:00:26;;;;;;;12.03;11.63;;;17.80;77.80;;;;;;5013347;28;20821;-51
2021/11/29 02:02:55;;;;;;;12.17;11.87;;;17.90;78.30;;;;;;5032033;28;20476;-49
2021/11/29 02:05:23;;;;;;;12.43;12.07;;;17.90;78.00;;;;;;5031586;28;20456;-48
2021/11/29 02:07:51;;;;;;;12.57;12.17;;;17.80;78.40;;;;;;5032118;28;20456;-49
2021/11/29 02:10:20;;;;;;;12.17;11.87;;;17.80;79.00;;;;;;5031563;28;20449;-48
2021/11/29 02:12:47;;;;;;;12.40;12.10;;;17.70;79.00;;;;;;5031346;28;20457;-49
2021/11/29 02:15:15;;;;;;;12.23;11.93;;;17.70;79.50;;;;;;5025125;28;20449;-48
2021/11/29 02:17:42;;;;;;;12.73;12.33;;;17.60;80.30;;;;;;5017792;28;20450;-48
2021/11/29 02:20:11;;;;;;;11.90;11.60;;;17.70;80.50;;;;;;5011401;28;20942;-48
2021/11/29 02:22:40;;;;;;;11.93;11.63;;;17.70;80.30;;;;;;5012648;28;20469;-48
2021/11/29 02:25:08;;;;;;;12.80;12.50;;;17.70;80.60;;;;;;5019411;28;20478;-48
2021/11/29 02:27:36;;;;;;;12.80;12.40;;;17.60;81.10;;;;;;5011956;28;20811;-48
2021/11/29 02:30:04;;;;;;;12.50;12.20;;;17.70;81.30;;;;;;5011990;28;20505;-48
2021/11/29 02:32:31;;;;;;;12.83;12.43;;;17.70;81.30;;;;;;5011911;28;20469;-51
2021/11/29 02:34:58;;;;;;;12.67;12.27;;;17.60;82.00;;;;;;5025109;28;20449;-49
2021/11/29 02:37:25;;;;;;;12.43;12.03;;;17.60;82.70;;;;;;5026080;28;20449;-48
2021/11/29 02:39:53;;;;;;;12.60;12.30;;;17.60;83.40;;;;;;5012030;28;20872;-50
2021/11/29 02:42:20;;;;;;;12.90;12.50;;;17.60;84.10;;;;;;5011692;28;20552;-49
2021/11/29 02:44:47;;;;;;;12.90;12.20;;;17.50;84.30;;;;;;5021522;28;20487;-49
2021/11/29 02:47:13;;;;;;;12.00;11.70;;;17.50;84.90;;;;;;5031660;28;20539;-48
2021/11/29 02:49:40;;;;;;;13.13;12.73;;;17.40;86.00;;;;;;5031179;28;20816;-48
2021/11/29 02:52:09;;;;;;;12.60;12.23;;;17.30;87.00;;;;;;5031296;28;20449;-48
2021/11/29 02:54:39;;;;;;;13.10;12.70;;;17.20;88.30;;;;;;5019607;28;20446;-48
2021/11/29 02:57:10;;;;;;;12.43;12.03;;;17.10;90.20;;;;;;5011778;28;20966;-48
2021/11/29 02:59:39;;;;;;;12.63;12.23;;;17.20;90.30;;;;;;5011809;28;20814;-48
2021/11/29 03:02:08;;;;;;;13.17;12.77;;;17.10;90.60;;;;;;5011391;28;20458;-48
2021/11/29 03:04:36;;;;;;;12.70;12.30;;;17.00;91.30;;;;;;5022572;28;20481;-48
2021/11/29 03:07:05;;;;;;;12.80;12.40;;;17.20;91.50;;;;;;5031428;28;20949;-48
2021/11/29 03:09:33;;;;;;;11.90;11.60;;;17.10;91.40;;;;;;5031070;28;20468;-49
2021/11/29 03:12:00;;;;;;;12.33;11.93;;;17.00;91.80;;;;;;5030908;28;20445;-49
2021/11/29 03:14:29;;;;;;;12.00;11.70;;;17.00;92.10;;;;;;5020494;28;20452;-48
2021/11/29 03:16:56;;;;;;;12.27;11.90;;;17.00;92.20;;;;;;5011493;28;20935;-48
2021/11/29 03:19:24;;;;;;;11.70;11.40;;;16.90;92.80;;;;;;5016395;28;20935;-48
2021/11/29 03:21:51;;;;;;;12.30;12.00;;;16.90;93.10;;;;;;5030713;28;20445;-48
2021/11/29 03:24:18;;;;;;;12.50;12.20;;;17.00;93.20;;;;;;5024071;28;21921;-48
2021/11/29 03:26:45;;;;;;;13.17;12.77;;;17.00;92.90;;;;;;5031057;28;20488;-50
2021/11/29 03:29:14;;;;;;;12.30;11.90;;;16.90;93.00;;;;;;5030894;28;20449;-49
2021/11/29 03:31:44;;;;;;;12.90;12.50;;;16.90;93.70;;;;;;5025006;28;20472;-48
2021/11/29 03:34:13;;;;;;;13.00;12.60;;;16.90;93.80;;;;;;5022360;28;20559;-48
2021/11/29 03:36:42;;;;;;;12.27;11.87;;;17.00;93.90;;;;;;5034733;28;20445;-49
2021/11/29 03:39:11;;;;;;;12.63;12.23;;;17.00;93.70;;;;;;5033467;28;20708;-48
2021/11/29 03:41:39;;;;;;;12.30;12.00;;;17.00;93.80;;;;;;5014660;28;20500;-48
2021/11/29 03:44:07;;;;;;;12.70;12.30;;;17.00;94.00;;;;;;5014575;28;20492;-48
2021/11/29 03:46:34;;;;;;;12.17;11.87;;;16.90;94.00;;;;;;5014671;28;20449;-49
2021/11/29 03:49:02;;;;;;;12.50;12.10;;;16.90;94.40;;;;;;5015505;28;20458;-48
2021/11/29 03:51:29;;;;;;;12.33;11.93;;;16.90;94.50;;;;;;4999002;28;20830;-49
2021/11/29 03:53:56;;;;;;;12.60;12.20;;;16.80;94.40;;;;;;5014429;28;20477;-48
2021/11/29 03:56:23;;;;;;;13.23;12.73;;;16.90;94.70;;;;;;5014655;28;20442;-48
2021/11/29 03:58:50;;;;;;;12.27;11.87;;;16.90;94.70;;;;;;5014596;28;20448;-51
2021/11/29 04:01:16;;;;;;;13.00;12.60;;;17.00;94.50;;;;;;5032352;28;20445;-50
2021/11/29 04:03:43;;;;;;;13.13;12.73;;;17.00;94.50;;;;;;5033905;28;20849;-48
2021/11/29 04:06:11;;;;;;;13.10;12.70;;;16.90;94.60;;;;;;5016376;28;20536;-49
2021/11/29 04:08:38;;;;;;;12.87;12.47;;;16.90;94.60;;;;;;5014370;28;20450;-49
2021/11/29 04:11:06;;;;;;;13.33;12.93;;;16.90;94.70;;;;;;5015318;28;20450;-49
2021/11/29 04:13:32;;;;;;;12.20;11.80;;;16.90;94.90;;;;;;5013876;28;20464;-49
2021/11/29 04:15:59;;;;;;;13.07;12.67;;;16.90;94.80;;;;;;5014075;28;20446;-51
2021/11/29 04:18:26;;;;;;;13.00;12.60;;;16.90;94.90;;;;;;5014005;28;20797;-49
2021/11/29 04:20:53;;;;;;;12.37;11.97;;;16.90;95.00;;;;;;5028068;28;20452;-48
2021/11/29 04:23:21;;;;;;;12.87;12.47;;;16.90;95.00;;;;;;5029357;28;20827;-49
2021/11/29 04:25:52;;;;;;;13.50;13.10;;;17.00;95.10;;;;;;5014984;28;20446;-50
2021/11/29 04:28:19;;;;;;;13.27;12.83;;;17.00;94.70;;;;;;5024111;28;20449;-48
2021/11/29 04:30:46;;;;;;;13.07;12.67;;;17.10;94.40;;;;;;5014089;28;20504;-49
2021/11/29 04:33:13;;;;;;;13.37;12.87;;;17.00;94.70;;;;;;4997375;28;20467;-50
2021/11/29 04:35:40;;;;;;;13.10;12.70;;;16.90;95.00;;;;;;4994335;28;20815;-49
2021/11/29 04:38:07;;;;;;;13.40;13.00;;;16.90;95.10;;;;;;4994293;28;20984;-51
2021/11/29 04:40:35;;;;;;;13.80;13.40;;;17.00;95.00;;;;;;4994174;28;20453;-49
2021/11/29 04:43:02;;;;;;;13.27;12.87;;;16.90;94.90;;;;;;4993391;28;20462;-48
2021/11/29 04:45:30;;;;;;;13.83;13.33;;;17.00;95.00;;;;;;5011191;28;20489;-49
2021/11/29 04:47:57;;;;;;;13.43;13.03;;;17.10;94.70;;;;;;5013601;28;20458;-50
2021/11/29 04:50:24;;;;;;;13.90;13.40;;;17.00;94.50;;;;;;5013575;28;20446;-48
2021/11/29 04:52:51;;;;;;;12.67;12.33;;;17.00;94.60;;;;;;5013155;28;20476;-48
2021/11/29 04:55:18;;;;;;;13.17;12.77;;;17.00;94.70;;;;;;5013465;28;20488;-49
2021/11/29 04:57:46;;;;;;;13.43;12.93;;;17.00;94.70;;;;;;5013567;28;20450;-48
2021/11/29 05:00:19;;;;;;;13.60;13.00;;;16.90;94.90;;;;;;5013373;28;20456;-48
2021/11/29 05:02:47;;;;;;;13.07;12.67;;;17.00;94.90;;;;;;5013185;28;20466;-49
2021/11/29 05:05:14;;;;;;;14.37;13.87;;;17.00;94.80;;;;;;5013188;28;20486;-51
2021/11/29 05:07:41;;;;;;;14.27;13.87;;;17.00;94.60;;;;;;5013322;28;20969;-48
2021/11/29 05:10:08;;;;;;;13.50;13.10;;;17.00;94.70;;;;;;5013479;28;20817;-51
2021/11/29 05:12:36;;;;;;;13.60;13.10;;;17.00;94.70;;;;;;5012879;28;20493;-52
2021/11/29 05:15:06;;;;;;;13.80;13.40;;;17.00;94.50;;;;;;5013066;28;20447;-48
2021/11/29 05:17:33;;;;;;;14.50;13.90;;;17.10;94.60;;;;;;5013158;28;20457;-48
2021/11/29 05:20:00;;;;;;;14.33;13.93;;;17.00;94.50;;;;;;5012181;28;20452;-51
2021/11/29 05:22:27;;;;;;;13.43;13.00;;;16.90;94.40;;;;;;4993450;28;20466;-48
2021/11/29 05:24:54;;;;;;;14.40;14.00;;;17.00;94.90;;;;;;4993235;28;20508;-53
2021/11/29 05:27:21;;;;;;;15.03;14.53;;;16.90;95.10;;;;;;4993271;28;20451;-48
2021/11/29 05:29:47;;;;;;;14.60;14.10;;;16.90;95.20;;;;;;4993289;28;20454;-48
2021/11/29 05:32:15;;;;;;;13.50;13.10;;;16.90;95.10;;;;;;4993001;28;20485;-51
2021/11/29 05:34:42;;;;;;;13.23;12.83;;;17.00;95.20;;;;;;4993223;28;20483;-48
2021/11/29 05:37:09;;;;;;;13.47;13.07;;;17.00;94.80;;;;;;4993099;28;20450;-48
2021/11/29 05:39:36;;;;;;;13.97;13.57;;;17.00;94.80;;;;;;4992984;28;20447;-49
2021/11/29 05:42:03;;;;;;;13.90;13.40;;;17.00;94.60;;;;;;4992696;28;20443;-49
2021/11/29 05:44:30;;;;;;;13.57;13.17;;;17.00;94.80;;;;;;4992821;28;20843;-49
2021/11/29 05:46:56;;;;;;;13.53;13.13;;;16.90;94.60;;;;;;4992914;28;20454;-50
2021/11/29 05:49:25;;;;;;;13.17;12.83;;;16.90;95.00;;;;;;4992792;28;20453;-50
2021/11/29 05:51:53;;;;;;;12.60;12.30;;;17.10;95.60;;;;;;4992628;28;20446;-48
2021/11/29 05:54:19;;;;;;;13.80;13.40;;;18.30;93.70;;;;;;4991855;28;20462;-47
2021/11/29 05:56:46;;;;;;;14.17;13.77;;;19.30;88.80;;;;;;4992926;28;20534;-48
2021/11/29 05:59:13;;;;;;;13.90;13.50;;;19.70;82.20;;;;;;4992869;28;20447;-51
2021/11/29 06:01:40;;;;;;;14.03;13.63;;;20.10;77.90;;;;;;4992774;28;20450;-49
2021/11/29 06:04:07;;;;;;;14.00;13.60;;;20.20;76.00;;;;;;4992613;28;20913;-47
2021/11/29 06:06:35;;;;;;;14.50;14.00;;;20.20;73.50;;;;;;4992817;28;20451;-49
2021/11/29 06:09:02;;;;;;;14.80;14.30;;;20.40;72.00;;;;;;4992555;28;20442;-47
2021/11/29 06:11:28;;;;;;;14.30;13.90;;;20.50;70.50;;;;;;4992520;28;20878;-47
2021/11/29 06:13:55;;;;;;;15.07;14.63;;;20.70;69.00;;;;;;4992355;28;20554;-52
2021/11/29 06:16:22;;;;;;;13.50;13.10;;;20.60;67.20;;;;;;4992571;28;20461;-48
2021/11/29 06:18:49;;;;;;;14.50;14.00;;;20.60;67.30;;;;;;4992644;28;20447;-47
2021/11/29 06:21:16;;;;;;;14.40;14.00;;;20.50;67.00;;;;;;5003464;28;20469;-49
2021/11/29 06:23:44;;;;;;;14.20;13.80;;;20.40;66.30;;;;;;5011857;28;20470;-48
2021/11/29 06:26:11;;;;;;;14.23;13.83;;;20.50;65.30;;;;;;5011900;28;20577;-48
2021/11/29 06:28:38;;;;;;;14.40;14.00;;;20.50;64.80;;;;;;5019245;28;20452;-47
2021/11/29 06:31:05;;;;;;;14.67;14.27;;;20.50;64.40;;;;;;5011924;28;20939;-48
2021/11/29 06:33:32;;;;;;;13.60;13.20;;;20.50;64.50;;;;;;4999638;28;20463;-49
2021/11/29 06:36:00;;;;;;;14.43;14.03;;;20.40;63.90;;;;;;4992294;28;20443;-47
2021/11/29 06:38:28;;;;;;;14.53;14.03;;;20.40;63.80;;;;;;4992112;28;20447;-50
2021/11/29 06:40:57;;;;;;;14.30;13.90;;;20.40;63.20;;;;;;4992235;28;20451;-48
2021/11/29 06:43:25;;;;;;;15.23;14.73;;;20.40;62.80;;;;;;4991969;28;20471;-49
2021/11/29 06:45:52;;;;;;;14.87;14.47;;;20.50;62.70;;;;;;5005111;28;21026;-47
2021/11/29 06:48:20;;;;;;;14.00;13.60;;;20.50;62.40;;;;;;5011904;28;20446;-47
2021/11/29 06:50:47;;;;;;;14.30;13.90;;;20.50;62.10;;;;;;5011621;28;20452;-49
2021/11/29 06:53:15;;;;;;;14.70;14.20;;;20.40;61.70;;;;;;5012675;28;20871;-49
2021/11/29 06:55:44;;;;;;;13.50;12.80;;;20.50;64.30;;;;;;5013536;28;20441;-50
2021/11/29 06:58:12;;;;;;;14.30;13.60;;;20.70;67.20;;;;;;5013819;28;20532;-49
2021/11/29 07:00:39;;;;;;;16.10;14.83;;;20.70;70.10;;;;;;5013358;28;20808;-49
2021/11/29 07:03:06;;;;;;;14.60;13.50;;;20.70;73.80;;;;;;5012994;28;20552;-52
2021/11/29 07:05:33;;;;;;;14.30;13.30;;;20.70;78.40;;;;;;5014546;28;20563;-49
2021/11/29 07:08:00;;;;;;;15.17;13.77;;;20.70;84.80;;;;;;5017220;28;20505;-49
2021/11/29 07:10:28;;;;;;;15.37;14.27;;;20.70;91.00;;;;;;5016968;28;20830;-49
2021/11/29 07:12:56;;;;;;;16.37;14.80;;;20.50;97.30;;;;;;5016765;28;20480;-49
2021/11/29 07:15:26;;;;;;;16.30;14.97;;;20.20;99.90;;;;;;5016768;28;20533;-50
2021/11/29 07:17:53;;;;;;;18.17;16.33;;;20.00;99.90;;;;;;5016591;28;20532;-48
2021/11/29 07:20:20;;;;;;;14.93;13.73;;;19.90;99.90;;;;;;5016599;28;20537;-49
2021/11/29 07:22:47;;;;;;;15.10;14.30;;;19.70;99.90;;;;;;5008957;28;20472;-49
2021/11/29 07:25:14;;;;;;;15.60;14.40;;;19.80;99.90;;;;;;5021626;28;20485;-55
2021/11/29 07:27:41;;;;;;;14.85;13.40;;;19.80;99.90;;;;;;5021307;28;20443;-47
2021/11/29 07:30:10;;;;;;;14.77;13.77;;;19.80;99.90;;;;;;5015008;28;20203;-53
2021/11/29 07:32:39;;;;;;;14.87;14.00;;;19.80;99.90;;;;;;5014669;28;20472;-57
2021/11/29 07:35:07;;;;;;;16.70;15.57;;;19.80;99.90;;;;;;5014902;28;20452;-56
2021/11/29 07:37:34;;;;;;;14.80;13.80;;;19.70;99.90;;;;;;5014617;28;20823;-52
2021/11/29 07:40:02;;;;;;;15.33;14.10;;;19.50;99.90;;;;;;5014757;28;20933;-52
2021/11/29 07:42:30;;;;;;;14.97;14.20;;;19.50;99.90;;;;;;5014403;28;20506;-53
2021/11/29 07:44:57;;;;;;;15.60;14.70;;;19.40;99.90;;;;;;5014471;28;20480;-53
2021/11/29 07:47:24;;;;;;;15.90;14.90;;;19.30;99.90;;;;;;5014772;28;20545;-54
2021/11/29 07:49:53;;;;;;;13.90;13.30;;;19.20;99.70;;;;;;5014641;28;20947;-53
2021/11/29 07:52:20;;;;;;;15.63;14.77;;;19.10;99.30;;;;;;5014321;28;20478;-56
2021/11/29 07:54:47;;;;;;;15.97;14.97;;;19.00;99.00;;;;;;5014601;28;20446;-55
2021/11/29 07:57:16;;;;;;;15.20;14.23;;;18.90;99.10;;;;;;5014556;28;20536;-54
2021/11/29 07:59:44;;;;;;;15.20;14.10;;;18.70;98.50;;;;;;5014439;28;21042;-54
2021/11/29 08:02:11;;;;;;;15.33;14.43;;;18.60;98.60;;;;;;5014158;28;20547;-52
2021/11/29 08:04:37;;;;;;;15.50;14.70;;;18.50;98.40;;;;;;5014174;28;20446;-52
2021/11/29 08:07:05;;;;;;;15.33;14.20;;;18.40;98.20;;;;;;5014245;28;20453;-51
2021/11/29 08:09:32;;;;;;;15.07;14.47;;;18.40;97.90;;;;;;5014199;28;20545;-50
2021/11/29 08:11:59;;;;;;;15.13;14.57;;;18.30;97.30;;;;;;5013873;28;20987;-53
2021/11/29 08:14:26;;;;;;;15.77;14.97;;;18.20;97.40;;;;;;5014173;28;20453;-50
2021/11/29 08:16:53;;;;;;;15.60;14.60;;;18.20;97.20;;;;;;5013255;28;20450;-54
2021/11/29 08:19:20;;;;;;;15.00;14.33;;;18.20;96.50;;;;;;5014107;28;20530;-56
2021/11/29 08:21:46;;;;;;;15.73;15.07;;;18.30;96.40;;;;;;5013944;28;20827;-57
2021/11/29 08:24:15;;;;;;;15.67;14.97;;;18.20;95.80;;;;;;5013902;28;20565;-54
2021/11/29 08:26:41;;;;;;;14.87;14.27;;;18.20;95.20;;;;;;5013895;28;20486;-51
2021/11/29 08:29:09;;;;;;;14.53;13.97;;;18.10;95.10;;;;;;5013960;28;20450;-53
2021/11/29 08:31:36;;;;;;;14.77;14.13;;;18.10;94.60;;;;;;5013640;28;20456;-52
2021/11/29 08:34:03;;;;;;;14.73;14.23;;;18.10;94.80;;;;;;5013708;28;20466;-53
2021/11/29 08:36:30;;;;;;;14.77;14.03;;;18.10;94.00;;;;;;5013704;28;20442;-54
2021/11/29 08:38:57;;;;;;;15.23;14.53;;;18.10;93.80;;;;;;5013646;28;20469;-52
2021/11/29 08:41:27;;;;;;;14.43;13.60;;;18.10;93.40;;;;;;5013693;28;20446;-51
2021/11/29 08:43:53;;;;;;;14.53;13.83;;;18.00;93.10;;;;;;5013490;28;20481;-51
2021/11/29 08:46:22;;;;;;;14.03;13.53;;;18.00;93.10;;;;;;5013432;28;21024;-53
2021/11/29 08:48:49;;;;;;;14.47;13.77;;;18.00;93.20;;;;;;5013489;28;20551;-52
2021/11/29 08:51:17;;;;;;;13.83;13.23;;;18.00;92.60;;;;;;5013369;28;20813;-53
2021/11/29 08:53:45;;;;;;;14.97;14.47;;;18.00;92.20;;;;;;5012987;28;20482;-50
2021/11/29 08:56:12;;;;;;;14.33;13.83;;;18.00;92.00;;;;;;5013480;28;20442;-50
2021/11/29 08:58:40;;;;;;;13.33;12.83;;;17.80;91.90;;;;;;5013372;28;20450;-52
2021/11/29 09:01:07;;;;;;;13.60;13.10;;;17.60;92.10;;;;;;5013340;28;20453;-53
2021/11/29 09:03:34;;;;;;;14.20;13.60;;;17.50;92.20;;;;;;5012801;28;20477;-53
2021/11/29 09:06:01;;;;;;;14.43;13.80;;;17.50;92.30;;;;;;5013088;28;20485;-50
2021/11/29 09:08:29;;;;;;;13.30;12.80;;;17.40;92.20;;;;;;5013129;28;20477;-52
2021/11/29 09:10:56;;;;;;;13.30;12.80;;;17.40;91.90;;;;;;5013128;28;20450;-50
2021/11/29 09:13:23;;;;;;;12.47;12.07;;;17.50;91.70;;;;;;5012749;28;20979;-53
2021/11/29 09:15:51;;;;;;;13.27;12.53;;;17.50;91.50;;;;;;5012992;28;20477;-51
2021/11/29 09:18:18;;;;;;;14.80;14.30;;;17.30;91.30;;;;;;5012864;28;20952;-51
2021/11/29 09:20:45;;;;;;;13.90;13.30;;;17.30;91.60;;;;;;5012968;28;20453;-53
2021/11/29 09:23:14;;;;;;;13.97;13.37;;;17.30;91.40;;;;;;5012620;28;20470;-51
2021/11/29 09:25:42;;;;;;;13.87;13.37;;;17.30;91.10;;;;;;5012713;28;20493;-50
2021/11/29 09:28:10;;;;;;;14.57;13.97;;;17.30;90.90;;;;;;5012665;28;20453;-52
2021/11/29 09:30:37;;;;;;;13.97;13.47;;;17.30;90.60;;;;;;5012731;28;20469;-51
2021/11/29 09:33:06;;;;;;;14.60;14.10;;;17.40;90.50;;;;;;5012352;28;20470;-51
2021/11/29 09:35:33;;;;;;;14.43;13.90;;;17.30;90.40;;;;;;5012634;28;20452;-50
2021/11/29 09:38:00;;;;;;;14.40;13.90;;;17.30;90.00;;;;;;5012682;28;20453;-51
2021/11/29 09:40:32;;;;;;;14.00;13.50;;;17.30;89.80;;;;;;5012577;28;20521;-52
2021/11/29 09:42:59;;;;;;;13.43;13.03;;;17.30;89.50;;;;;;5012341;28;20595;-51
2021/11/29 09:45:27;;;;;;;13.67;13.13;;;17.20;88.80;;;;;;5012473;28;20492;-52
2021/11/29 09:47:55;;;;;;;13.10;12.60;;;17.10;88.90;;;;;;5012400;28;20446;-52
2021/11/29 09:50:24;;;;;;;13.50;13.10;;;17.20;88.90;;;;;;5012360;28;20940;-52
2021/11/29 09:52:51;;;;;;;13.80;13.30;;;17.20;88.10;;;;;;5011972;28;20482;-53
2021/11/29 09:55:21;;;;;;;12.03;11.70;;;17.10;87.70;;;;;;5012293;28;20817;-50
2021/11/29 09:57:48;;;;;;;13.07;12.67;;;17.10;87.60;;;;;;5012192;28;20788;-50
2021/11/29 10:00:19;;;;;;;14.00;13.40;;;17.20;87.10;;;;;;5012275;28;20446;-52
2021/11/29 10:02:46;;;;;;;14.27;13.87;;;17.10;87.10;;;;;;5011823;28;20473;-50
2021/11/29 10:05:14;;;;;;;14.33;13.83;;;17.10;86.80;;;;;;5012144;28;20450;-50
2021/11/29 10:07:47;;;;;;;13.10;12.60;;;17.10;86.60;;;;;;5012051;28;20452;-50
2021/11/29 10:10:18;;;;;;;13.40;12.97;;;17.00;87.10;;;;;;5012247;28;20543;-50
2021/11/29 10:12:46;;;;;;;13.20;12.70;;;17.00;86.60;;;;;;5011936;28;20469;-51
2021/11/29 10:15:23;;;;;;;13.20;12.80;;;17.10;86.70;;;;;;5012110;28;20452;-53
2021/11/29 10:17:52;;;;;;;12.40;12.00;;;17.00;86.00;;;;;;5011946;28;20528;-51
2021/11/29 10:20:20;;;;;;;12.87;12.47;;;17.10;85.60;;;;;;5011958;28;20458;-53
2021/11/29 10:22:59;;;;;;;12.93;12.53;;;17.00;84.80;;;;;;5011605;28;20462;-52
2021/11/29 10:25:26;;;;;;;13.43;13.03;;;17.00;84.70;;;;;;5011859;28;20452;-49
2021/11/29 10:27:53;;;;;;;12.87;12.37;;;17.00;85.00;;;;;;5011878;28;20452;-53
2021/11/29 10:30:21;;;;;;;13.10;12.73;;;17.00;85.30;;;;;;5011837;28;20446;-49
2021/11/29 10:32:49;;;;;;;12.83;12.43;;;16.90;85.10;;;;;;5011402;28;20561;-51
2021/11/29 10:35:24;;;;;;;13.50;13.10;;;16.90;85.00;;;;;;5011764;28;20454;-52
2021/11/29 10:37:52;;;;;;;13.57;12.90;;;16.90;84.70;;;;;;5011832;28;20449;-49
2021/11/29 10:40:21;;;;;;;13.13;12.73;;;17.00;84.20;;;;;;5011105;28;20936;-51
2021/11/29 10:42:48;;;;;;;13.37;12.70;;;17.00;83.40;;;;;;5011528;28;20470;-52
2021/11/29 10:45:23;;;;;;;14.73;14.20;;;16.90;83.00;;;;;;5012003;28;20856;-52
2021/11/29 10:47:52;;;;;;;14.10;13.63;;;17.00;84.60;;;;;;5012340;28;20438;-49
2021/11/29 10:50:23;;;;;;;12.32;11.82;;;17.10;87.20;;;;;;5011025;28;20938;-57
2021/11/29 10:52:50;;;;;;;14.67;14.10;;;17.30;90.40;;;;;;5012061;28;20234;-49
2021/11/29 10:55:17;;;;;;;14.57;14.17;;;17.60;90.30;;;;;;5011420;28;20453;-48
2021/11/29 10:57:52;;;;;;;15.07;14.57;;;17.50;89.60;;;;;;5011903;28;20450;-50
2021/11/29 11:00:19;;;;;;;16.40;15.90;;;17.60;90.40;;;;;;5011512;28;20652;-54
2021/11/29 11:03:03;;;;;;;16.37;15.83;;;17.50;90.00;;;;;;5011214;28;21015;-50
2021/11/29 11:05:29;;;;;;;17.33;16.83;;;17.40;89.60;;;;;;5011393;28;20901;-51
2021/11/29 11:08:11;;;;;;;17.87;17.27;;;17.30;88.50;;;;;;5011570;28;20452;-53
2021/11/29 11:10:38;;;;;;;17.37;16.87;;;17.30;90.00;;;;;;5011741;28;20454;-51
2021/11/29 11:13:06;;;;;;;16.70;16.10;;;17.40;90.00;;;;;;5011337;28;20470;-50
2021/11/29 11:15:44;;;;;;;16.23;15.70;;;17.40;88.10;;;;;;5011467;28;20553;-50
2021/11/29 11:18:11;;;;;;;16.20;15.70;;;17.40;90.00;;;;;;5011369;28;20533;-52
2021/11/29 11:20:39;;;;;;;16.97;16.47;;;17.50;89.20;;;;;;5011309;28;20457;-52
2021/11/29 11:23:06;;;;;;;17.27;16.70;;;17.50;88.70;;;;;;5011053;28;20466;-52
2021/11/29 11:25:35;;;;;;;17.30;16.73;;;17.50;87.60;;;;;;5011537;28;20477;-51
2021/11/29 11:28:04;;;;;;;15.00;14.50;;;17.50;87.70;;;;;;5011366;28;20446;-51
2021/11/29 11:30:35;;;;;;;15.50;15.00;;;17.50;87.90;;;;;;5012349;28;20532;-51
2021/11/29 11:33:06;;;;;;;14.40;13.90;;;17.40;86.80;;;;;;5010766;28;20461;-51
2021/11/29 11:35:36;;;;;;;13.73;13.33;;;17.40;86.70;;;;;;5011259;28;20448;-52
2021/11/29 11:38:06;;;;;;;13.90;13.40;;;17.50;85.70;;;;;;5011187;28;20777;-53
2021/11/29 11:40:35;;;;;;;16.10;15.60;;;17.40;84.30;;;;;;5011221;28;20452;-55
2021/11/29 11:43:05;;;;;;;16.63;16.13;;;17.30;82.80;;;;;;5010763;28;20458;-51
2021/11/29 11:45:35;;;;;;;15.87;15.47;;;17.30;83.30;;;;;;5011124;28;20446;-51
2021/11/29 11:48:02;;;;;;;15.40;15.00;;;17.40;83.00;;;;;;5011109;28;20485;-51
2021/11/29 11:50:33;;;;;;;15.97;15.47;;;17.30;82.70;;;;;;5011056;28;20446;-51
2021/11/29 11:53:00;;;;;;;16.10;15.60;;;17.30;82.00;;;;;;5012526;28;20516;-53
2021/11/29 11:55:32;;;;;;;15.30;14.90;;;17.40;81.30;;;;;;5014514;28;20456;-50
2021/11/29 11:58:00;;;;;;;15.50;15.10;;;17.50;79.80;;;;;;5014455;28;20439;-50
2021/11/29 12:00:33;;;;;;;16.07;15.57;;;17.60;79.10;;;;;;5014407;28;20982;-51
2021/11/29 12:03:16;;;;;;;14.80;14.40;;;17.50;79.00;;;;;;5014132;28;20498;-51
2021/11/29 12:05:52;;;;;;;14.90;14.47;;;17.70;79.50;;;;;;5014331;28;20997;-52
2021/11/29 12:08:40;;;;;;;15.20;14.80;;;17.80;78.30;;;;;;5014297;28;20449;-50
2021/11/29 12:11:39;;;;;;;15.13;14.73;;;18.00;77.10;;;;;;5014230;28;20446;-54
2021/11/29 12:14:11;;;;;;;15.70;15.30;;;18.10;76.20;;;;;;5014284;28;20458;-52
2021/11/29 12:16:41;;;;;;;15.20;14.70;;;18.20;75.50;;;;;;5014205;28;21121;-52
2021/11/29 12:19:15;;;;;;;15.23;14.73;;;18.20;74.80;;;;;;5014019;28;20807;-51
2021/11/29 12:21:43;;;;;;;14.50;14.10;;;18.20;73.40;;;;;;5013910;28;20447;-51
2021/11/29 12:24:13;;;;;;;15.80;15.30;;;18.20;73.20;;;;;;5013797;28;21041;-52
2021/11/29 12:27:07;;;;;;;15.90;15.40;;;18.20;72.80;;;;;;5013799;28;20481;-51
2021/11/29 12:29:53;;;;;;;16.23;15.73;;;18.20;72.30;;;;;;5014068;28;20442;-51
2021/11/29 12:32:22;;;;;;;16.43;15.60;;;18.20;72.10;;;;;;5013618;28;20466;-51